sensor_id;sensor_type;location;lat;lon;timestamp;temperature;humidity
53294;DHT22;39181;53.440;5.644;2023-05-07T00:00:24;12.70;99.90
53294;DHT22;39181;53.440;5.644;2023-05-07T00:02:50;12.60;99.90
53294;DHT22;39181;53.440;5.644;2023-05-07T00:05:16;12.60;99.90
53294;DHT22;39181;53.440;5.644;2023-05-07T00:07:41;12.60;99.90
53294;DHT22;39181;53.440;5.644;2023-05-07T00:10:07;12.60;99.90
53294;DHT22;39181;53.440;5.644;2023-05-07T00:12:33;12.60;99.90
53294;DHT22;39181;53.440;5.644;2023-05-07T00:15:00;12.50;99.90
53294;DHT22;39181;53.440;5.644;2023-05-07T00:17:26;12.50;99.90
53294;DHT22;39181;53.440;5.644;2023-05-07T00:19:51;12.50;99.90
53294;DHT22;39181;53.440;5.644;2023-05-07T00:22:17;12.40;99.90
53294;DHT22;39181;53.440;5.644;2023-05-07T00:24:43;12.40;99.90
53294;DHT22;39181;53.440;5.644;2023-05-07T00:27:08;12.40;99.90
53294;DHT22;39181;53.440;5.644;2023-05-07T00:29:34;12.40;99.90
53294;DHT22;39181;53.440;5.644;2023-05-07T00:31:59;12.40;99.90
53294;DHT22;39181;53.440;5.644;2023-05-07T00:34:25;12.30;99.90
53294;DHT22;39181;53.440;5.644;2023-05-07T00:36:50;12.30;99.90
53294;DHT22;39181;53.440;5.644;2023-05-07T00:39:16;12.30;99.90
53294;DHT22;39181;53.440;5.644;2023-05-07T00:41:42;12.20;99.90
53294;DHT22;39181;53.440;5.644;2023-05-07T00:44:07;12.20;99.90
53294;DHT22;39181;53.440;5.644;2023-05-07T00:46:33;12.20;99.90
53294;DHT22;39181;53.440;5.644;2023-05-07T00:48:59;12.10;99.90
53294;DHT22;39181;53.440;5.644;2023-05-07T00:51:25;12.20;99.90
53294;DHT22;39181;53.440;5.644;2023-05-07T00:53:53;12.10;99.90
53294;DHT22;39181;53.440;5.644;2023-05-07T00:56:20;12.10;99.90
53294;DHT22;39181;53.440;5.644;2023-05-07T00:58:46;12.10;99.90
53294;DHT22;39181;53.440;5.644;2023-05-07T01:01:12;12.10;99.90
53294;DHT22;39181;53.440;5.644;2023-05-07T01:03:38;12.10;99.90
53294;DHT22;39181;53.440;5.644;2023-05-07T01:06:04;12.10;99.90
53294;DHT22;39181;53.440;5.644;2023-05-07T01:08:32;12.00;99.90
53294;DHT22;39181;53.440;5.644;2023-05-07T01:10:58;12.10;99.90
53294;DHT22;39181;53.440;5.644;2023-05-07T01:13:24;11.90;99.90
53294;DHT22;39181;53.440;5.644;2023-05-07T01:15:50;12.00;99.90
53294;DHT22;39181;53.440;5.644;2023-05-07T01:18:16;12.00;99.90
53294;DHT22;39181;53.440;5.644;2023-05-07T01:20:42;11.90;99.90
53294;DHT22;39181;53.440;5.644;2023-05-07T01:23:08;11.90;99.90
53294;DHT22;39181;53.440;5.644;2023-05-07T01:25:36;11.90;99.90
53294;DHT22;39181;53.440;5.644;2023-05-07T01:28:01;11.80;99.90
53294;DHT22;39181;53.440;5.644;2023-05-07T01:30:28;11.80;99.90
53294;DHT22;39181;53.440;5.644;2023-05-07T01:33:07;11.80;99.90
53294;DHT22;39181;53.440;5.644;2023-05-07T01:35:43;11.80;99.90
53294;DHT22;39181;53.440;5.644;2023-05-07T01:38:10;11.70;99.90
53294;DHT22;39181;53.440;5.644;2023-05-07T01:40:36;11.80;99.90
53294;DHT22;39181;53.440;5.644;2023-05-07T01:43:02;11.70;99.90
53294;DHT22;39181;53.440;5.644;2023-05-07T01:45:28;11.70;99.90
53294;DHT22;39181;53.440;5.644;2023-05-07T01:47:55;11.70;99.90
53294;DHT22;39181;53.440;5.644;2023-05-07T01:50:21;11.60;99.90
53294;DHT22;39181;53.440;5.644;2023-05-07T01:52:47;11.70;99.90
53294;DHT22;39181;53.440;5.644;2023-05-07T01:55:15;11.60;99.90
53294;DHT22;39181;53.440;5.644;2023-05-07T01:57:41;11.60;99.90
53294;DHT22;39181;53.440;5.644;2023-05-07T02:00:07;11.50;99.90
53294;DHT22;39181;53.440;5.644;2023-05-07T02:02:34;11.60;99.90
53294;DHT22;39181;53.440;5.644;2023-05-07T02:05:00;11.60;99.90
53294;DHT22;39181;53.440;5.644;2023-05-07T02:07:27;11.50;99.90
53294;DHT22;39181;53.440;5.644;2023-05-07T02:09:53;11.60;99.90
53294;DHT22;39181;53.440;5.644;2023-05-07T02:12:19;11.50;99.90
53294;DHT22;39181;53.440;5.644;2023-05-07T02:14:44;11.50;99.90
53294;DHT22;39181;53.440;5.644;2023-05-07T02:17:10;11.50;99.90
53294;DHT22;39181;53.440;5.644;2023-05-07T02:19:35;11.50;99.90
53294;DHT22;39181;53.440;5.644;2023-05-07T02:22:01;11.50;99.90
53294;DHT22;39181;53.440;5.644;2023-05-07T02:24:26;11.40;99.90
53294;DHT22;39181;53.440;5.644;2023-05-07T02:26:52;11.80;99.90
53294;DHT22;39181;53.440;5.644;2023-05-07T02:29:18;11.40;99.90
53294;DHT22;39181;53.440;5.644;2023-05-07T02:31:43;11.50;99.90
53294;DHT22;39181;53.440;5.644;2023-05-07T02:34:09;11.30;99.90
53294;DHT22;39181;53.440;5.644;2023-05-07T02:36:34;11.40;99.90
53294;DHT22;39181;53.440;5.644;2023-05-07T02:39:00;11.30;99.90
53294;DHT22;39181;53.440;5.644;2023-05-07T02:41:26;11.30;99.90
53294;DHT22;39181;53.440;5.644;2023-05-07T02:43:53;11.30;99.90
53294;DHT22;39181;53.440;5.644;2023-05-07T02:46:18;11.30;99.90
53294;DHT22;39181;53.440;5.644;2023-05-07T02:48:44;11.40;99.90
53294;DHT22;39181;53.440;5.644;2023-05-07T02:51:10;11.30;99.90
53294;DHT22;39181;53.440;5.644;2023-05-07T02:53:35;11.40;99.90
53294;DHT22;39181;53.440;5.644;2023-05-07T02:56:01;11.30;99.90
53294;DHT22;39181;53.440;5.644;2023-05-07T02:58:27;11.30;99.90
53294;DHT22;39181;53.440;5.644;2023-05-07T03:00:53;11.30;99.90
53294;DHT22;39181;53.440;5.644;2023-05-07T03:03:20;11.30;99.90
53294;DHT22;39181;53.440;5.644;2023-05-07T03:05:45;11.30;99.90
53294;DHT22;39181;53.440;5.644;2023-05-07T03:08:11;11.30;99.90
53294;DHT22;39181;53.440;5.644;2023-05-07T03:10:37;11.30;99.90
53294;DHT22;39181;53.440;5.644;2023-05-07T03:13:02;11.30;99.90
53294;DHT22;39181;53.440;5.644;2023-05-07T03:15:28;11.30;99.90
53294;DHT22;39181;53.440;5.644;2023-05-07T03:17:54;11.30;99.90
53294;DHT22;39181;53.440;5.644;2023-05-07T03:20:19;11.30;99.90
53294;DHT22;39181;53.440;5.644;2023-05-07T03:22:45;11.30;99.90
53294;DHT22;39181;53.440;5.644;2023-05-07T03:25:11;11.30;99.90
53294;DHT22;39181;53.440;5.644;2023-05-07T03:27:36;11.30;99.90
53294;DHT22;39181;53.440;5.644;2023-05-07T03:30:02;11.30;99.90
53294;DHT22;39181;53.440;5.644;2023-05-07T03:32:28;11.30;99.90
53294;DHT22;39181;53.440;5.644;2023-05-07T03:34:53;11.30;99.90
53294;DHT22;39181;53.440;5.644;2023-05-07T03:37:19;11.30;99.90
53294;DHT22;39181;53.440;5.644;2023-05-07T03:39:45;11.30;99.90
53294;DHT22;39181;53.440;5.644;2023-05-07T03:42:10;11.30;99.90
53294;DHT22;39181;53.440;5.644;2023-05-07T03:44:36;11.20;99.90
53294;DHT22;39181;53.440;5.644;2023-05-07T03:47:02;11.20;99.90
53294;DHT22;39181;53.440;5.644;2023-05-07T03:49:28;11.30;99.90
53294;DHT22;39181;53.440;5.644;2023-05-07T03:51:53;11.20;99.90
53294;DHT22;39181;53.440;5.644;2023-05-07T03:54:19;11.30;99.90
53294;DHT22;39181;53.440;5.644;2023-05-07T03:56:44;11.30;99.90
53294;DHT22;39181;53.440;5.644;2023-05-07T03:59:10;11.30;99.90
53294;DHT22;39181;53.440;5.644;2023-05-07T04:01:36;11.20;99.90
53294;DHT22;39181;53.440;5.644;2023-05-07T04:04:01;11.30;99.90
53294;DHT22;39181;53.440;5.644;2023-05-07T04:06:28;11.20;99.90
53294;DHT22;39181;53.440;5.644;2023-05-07T04:08:54;11.30;99.90
53294;DHT22;39181;53.440;5.644;2023-05-07T04:11:19;11.20;99.90
53294;DHT22;39181;53.440;5.644;2023-05-07T04:13:45;11.20;99.90
53294;DHT22;39181;53.440;5.644;2023-05-07T04:16:11;11.20;99.90
53294;DHT22;39181;53.440;5.644;2023-05-07T04:18:36;11.20;99.90
53294;DHT22;39181;53.440;5.644;2023-05-07T04:21:02;11.20;99.90
53294;DHT22;39181;53.440;5.644;2023-05-07T04:23:28;11.20;99.90
53294;DHT22;39181;53.440;5.644;2023-05-07T04:25:53;11.20;99.90
53294;DHT22;39181;53.440;5.644;2023-05-07T04:28:19;11.20;99.90
53294;DHT22;39181;53.440;5.644;2023-05-07T04:30:45;11.20;99.90
53294;DHT22;39181;53.440;5.644;2023-05-07T04:33:11;11.10;99.90
53294;DHT22;39181;53.440;5.644;2023-05-07T04:35:37;11.20;99.90
53294;DHT22;39181;53.440;5.644;2023-05-07T04:38:02;11.20;99.90
53294;DHT22;39181;53.440;5.644;2023-05-07T04:40:28;11.20;99.90
53294;DHT22;39181;53.440;5.644;2023-05-07T04:42:54;11.30;99.90
53294;DHT22;39181;53.440;5.644;2023-05-07T04:45:20;11.20;99.90
53294;DHT22;39181;53.440;5.644;2023-05-07T04:47:45;11.10;99.90
53294;DHT22;39181;53.440;5.644;2023-05-07T04:50:11;11.20;99.90
53294;DHT22;39181;53.440;5.644;2023-05-07T04:52:37;11.20;99.90
53294;DHT22;39181;53.440;5.644;2023-05-07T04:55:02;11.30;99.90
53294;DHT22;39181;53.440;5.644;2023-05-07T04:57:28;11.20;99.90
53294;DHT22;39181;53.440;5.644;2023-05-07T04:59:54;11.20;99.90
53294;DHT22;39181;53.440;5.644;2023-05-07T05:02:20;11.20;99.90
53294;DHT22;39181;53.440;5.644;2023-05-07T05:04:45;11.20;99.90
53294;DHT22;39181;53.440;5.644;2023-05-07T05:07:11;11.20;99.90
53294;DHT22;39181;53.440;5.644;2023-05-07T05:09:37;11.20;99.90
53294;DHT22;39181;53.440;5.644;2023-05-07T05:12:02;11.20;99.90
53294;DHT22;39181;53.440;5.644;2023-05-07T05:14:29;11.20;99.90
53294;DHT22;39181;53.440;5.644;2023-05-07T05:16:54;11.30;99.90
53294;DHT22;39181;53.440;5.644;2023-05-07T05:19:20;11.30;99.90
53294;DHT22;39181;53.440;5.644;2023-05-07T05:21:46;11.20;99.90
53294;DHT22;39181;53.440;5.644;2023-05-07T05:24:11;11.30;99.90
53294;DHT22;39181;53.440;5.644;2023-05-07T05:26:37;11.20;99.90
53294;DHT22;39181;53.440;5.644;2023-05-07T05:29:02;11.40;99.90
53294;DHT22;39181;53.440;5.644;2023-05-07T05:31:28;11.30;99.90
53294;DHT22;39181;53.440;5.644;2023-05-07T05:33:53;11.30;99.90
53294;DHT22;39181;53.440;5.644;2023-05-07T05:36:19;11.30;99.90
53294;DHT22;39181;53.440;5.644;2023-05-07T05:38:44;11.40;99.90
53294;DHT22;39181;53.440;5.644;2023-05-07T05:41:10;11.50;99.90
53294;DHT22;39181;53.440;5.644;2023-05-07T05:43:36;11.50;99.90
53294;DHT22;39181;53.440;5.644;2023-05-07T05:46:01;11.50;99.90
53294;DHT22;39181;53.440;5.644;2023-05-07T05:48:29;11.60;99.90
53294;DHT22;39181;53.440;5.644;2023-05-07T05:50:54;11.70;99.90
53294;DHT22;39181;53.440;5.644;2023-05-07T05:53:20;11.70;99.90
53294;DHT22;39181;53.440;5.644;2023-05-07T05:55:45;11.60;99.90
53294;DHT22;39181;53.440;5.644;2023-05-07T05:58:11;11.70;99.90
53294;DHT22;39181;53.440;5.644;2023-05-07T06:00:37;11.70;99.90
53294;DHT22;39181;53.440;5.644;2023-05-07T06:03:03;11.60;99.90
53294;DHT22;39181;53.440;5.644;2023-05-07T06:05:28;11.70;99.90
53294;DHT22;39181;53.440;5.644;2023-05-07T06:07:54;11.70;99.90
53294;DHT22;39181;53.440;5.644;2023-05-07T06:10:19;11.70;99.90
53294;DHT22;39181;53.440;5.644;2023-05-07T06:12:45;11.70;99.90
53294;DHT22;39181;53.440;5.644;2023-05-07T06:15:11;11.80;99.90
53294;DHT22;39181;53.440;5.644;2023-05-07T06:17:36;11.80;99.90
53294;DHT22;39181;53.440;5.644;2023-05-07T06:20:02;11.80;99.90
53294;DHT22;39181;53.440;5.644;2023-05-07T06:22:27;11.80;99.90
53294;DHT22;39181;53.440;5.644;2023-05-07T06:24:53;11.70;99.90
53294;DHT22;39181;53.440;5.644;2023-05-07T06:27:18;11.70;99.90
53294;DHT22;39181;53.440;5.644;2023-05-07T06:29:44;11.70;99.90
53294;DHT22;39181;53.440;5.644;2023-05-07T06:32:11;11.80;99.90
53294;DHT22;39181;53.440;5.644;2023-05-07T06:34:37;11.80;99.90
53294;DHT22;39181;53.440;5.644;2023-05-07T06:37:03;11.70;99.90
53294;DHT22;39181;53.440;5.644;2023-05-07T06:39:29;11.80;99.90
53294;DHT22;39181;53.440;5.644;2023-05-07T06:41:54;11.80;99.90
53294;DHT22;39181;53.440;5.644;2023-05-07T06:44:20;11.80;99.90
53294;DHT22;39181;53.440;5.644;2023-05-07T06:46:46;11.70;99.90
53294;DHT22;39181;53.440;5.644;2023-05-07T06:49:14;11.60;99.90
53294;DHT22;39181;53.440;5.644;2023-05-07T06:51:40;11.70;99.90
53294;DHT22;39181;53.440;5.644;2023-05-07T06:54:06;11.70;99.90
53294;DHT22;39181;53.440;5.644;2023-05-07T06:56:32;11.70;99.90
53294;DHT22;39181;53.440;5.644;2023-05-07T06:58:59;11.60;99.90
53294;DHT22;39181;53.440;5.644;2023-05-07T07:01:25;11.60;99.90
53294;DHT22;39181;53.440;5.644;2023-05-07T07:03:50;11.60;99.90
53294;DHT22;39181;53.440;5.644;2023-05-07T07:06:16;11.50;99.90
53294;DHT22;39181;53.440;5.644;2023-05-07T07:08:42;11.50;99.90
53294;DHT22;39181;53.440;5.644;2023-05-07T07:11:08;11.60;99.90
53294;DHT22;39181;53.440;5.644;2023-05-07T07:13:34;11.50;99.90
53294;DHT22;39181;53.440;5.644;2023-05-07T07:16:00;11.50;99.90
53294;DHT22;39181;53.440;5.644;2023-05-07T07:18:25;11.50;99.90
53294;DHT22;39181;53.440;5.644;2023-05-07T07:20:51;11.50;99.90
53294;DHT22;39181;53.440;5.644;2023-05-07T07:23:16;11.50;99.90
53294;DHT22;39181;53.440;5.644;2023-05-07T07:25:42;11.60;99.90
53294;DHT22;39181;53.440;5.644;2023-05-07T07:28:08;11.50;99.90
53294;DHT22;39181;53.440;5.644;2023-05-07T07:30:33;11.60;99.90
53294;DHT22;39181;53.440;5.644;2023-05-07T07:32:59;11.50;99.90
53294;DHT22;39181;53.440;5.644;2023-05-07T07:35:32;11.60;99.90
53294;DHT22;39181;53.440;5.644;2023-05-07T07:37:57;11.50;99.90
53294;DHT22;39181;53.440;5.644;2023-05-07T07:40:23;11.50;99.90
53294;DHT22;39181;53.440;5.644;2023-05-07T07:42:50;11.50;99.90
53294;DHT22;39181;53.440;5.644;2023-05-07T07:45:16;11.50;99.90
53294;DHT22;39181;53.440;5.644;2023-05-07T07:47:41;11.50;99.90
53294;DHT22;39181;53.440;5.644;2023-05-07T07:50:07;11.60;99.90
53294;DHT22;39181;53.440;5.644;2023-05-07T07:52:33;11.60;99.90
53294;DHT22;39181;53.440;5.644;2023-05-07T07:54:59;11.70;99.90
53294;DHT22;39181;53.440;5.644;2023-05-07T07:57:26;11.80;99.90
53294;DHT22;39181;53.440;5.644;2023-05-07T07:59:52;11.80;99.90
53294;DHT22;39181;53.440;5.644;2023-05-07T08:02:18;11.90;99.90
53294;DHT22;39181;53.440;5.644;2023-05-07T08:04:43;12.10;99.90
53294;DHT22;39181;53.440;5.644;2023-05-07T08:07:12;12.10;99.90
53294;DHT22;39181;53.440;5.644;2023-05-07T08:09:38;12.20;99.90
53294;DHT22;39181;53.440;5.644;2023-05-07T08:12:05;12.30;99.90
53294;DHT22;39181;53.440;5.644;2023-05-07T08:14:31;12.30;99.90
53294;DHT22;39181;53.440;5.644;2023-05-07T08:16:56;12.30;99.90
53294;DHT22;39181;53.440;5.644;2023-05-07T08:19:22;12.30;99.90
53294;DHT22;39181;53.440;5.644;2023-05-07T08:21:48;12.30;99.90
53294;DHT22;39181;53.440;5.644;2023-05-07T08:24:14;12.20;99.90
53294;DHT22;39181;53.440;5.644;2023-05-07T08:26:40;12.30;99.90
53294;DHT22;39181;53.440;5.644;2023-05-07T08:29:07;12.30;99.90
53294;DHT22;39181;53.440;5.644;2023-05-07T08:31:35;12.20;99.90
53294;DHT22;39181;53.440;5.644;2023-05-07T08:34:01;12.30;99.90
53294;DHT22;39181;53.440;5.644;2023-05-07T08:36:26;12.30;99.90
53294;DHT22;39181;53.440;5.644;2023-05-07T08:38:53;12.40;99.90
53294;DHT22;39181;53.440;5.644;2023-05-07T08:41:20;12.50;99.90
53294;DHT22;39181;53.440;5.644;2023-05-07T08:43:50;12.50;99.90
53294;DHT22;39181;53.440;5.644;2023-05-07T08:46:21;12.40;99.90
53294;DHT22;39181;53.440;5.644;2023-05-07T08:48:50;12.50;99.90
53294;DHT22;39181;53.440;5.644;2023-05-07T08:51:18;12.80;99.90
53294;DHT22;39181;53.440;5.644;2023-05-07T08:53:47;12.70;99.90
53294;DHT22;39181;53.440;5.644;2023-05-07T08:56:16;12.90;99.90
53294;DHT22;39181;53.440;5.644;2023-05-07T08:58:43;13.00;99.90
53294;DHT22;39181;53.440;5.644;2023-05-07T09:01:12;13.10;99.90
53294;DHT22;39181;53.440;5.644;2023-05-07T09:03:39;13.30;99.90
53294;DHT22;39181;53.440;5.644;2023-05-07T09:06:05;13.20;99.90
53294;DHT22;39181;53.440;5.644;2023-05-07T09:08:32;13.30;99.90
53294;DHT22;39181;53.440;5.644;2023-05-07T09:10:58;13.40;99.90
53294;DHT22;39181;53.440;5.644;2023-05-07T09:13:24;13.50;99.90
53294;DHT22;39181;53.440;5.644;2023-05-07T09:15:50;13.70;99.90
53294;DHT22;39181;53.440;5.644;2023-05-07T09:18:15;13.70;99.90
53294;DHT22;39181;53.440;5.644;2023-05-07T09:20:41;13.80;99.90
53294;DHT22;39181;53.440;5.644;2023-05-07T09:23:07;14.00;99.90
53294;DHT22;39181;53.440;5.644;2023-05-07T09:25:34;14.10;99.90
53294;DHT22;39181;53.440;5.644;2023-05-07T09:28:01;14.00;99.90
53294;DHT22;39181;53.440;5.644;2023-05-07T09:30:30;14.30;99.90
53294;DHT22;39181;53.440;5.644;2023-05-07T09:32:57;14.40;99.90
53294;DHT22;39181;53.440;5.644;2023-05-07T09:35:24;14.50;99.90
53294;DHT22;39181;53.440;5.644;2023-05-07T09:37:57;14.60;99.90
53294;DHT22;39181;53.440;5.644;2023-05-07T09:40:25;14.60;99.90
53294;DHT22;39181;53.440;5.644;2023-05-07T09:42:51;14.60;99.90
53294;DHT22;39181;53.440;5.644;2023-05-07T09:45:29;14.70;99.90
53294;DHT22;39181;53.440;5.644;2023-05-07T09:47:56;14.80;99.90
53294;DHT22;39181;53.440;5.644;2023-05-07T09:50:27;15.00;99.90
53294;DHT22;39181;53.440;5.644;2023-05-07T09:52:55;15.20;99.90
53294;DHT22;39181;53.440;5.644;2023-05-07T09:55:21;15.30;99.90
53294;DHT22;39181;53.440;5.644;2023-05-07T09:57:50;15.40;99.90
53294;DHT22;39181;53.440;5.644;2023-05-07T10:00:18;15.40;99.90
53294;DHT22;39181;53.440;5.644;2023-05-07T10:02:46;15.50;99.90
53294;DHT22;39181;53.440;5.644;2023-05-07T10:05:14;15.60;99.90
53294;DHT22;39181;53.440;5.644;2023-05-07T10:07:40;15.80;99.90
53294;DHT22;39181;53.440;5.644;2023-05-07T10:10:07;16.00;99.90
53294;DHT22;39181;53.440;5.644;2023-05-07T10:12:33;16.30;99.90
53294;DHT22;39181;53.440;5.644;2023-05-07T10:15:06;16.60;99.90
53294;DHT22;39181;53.440;5.644;2023-05-07T10:17:38;16.90;99.90
53294;DHT22;39181;53.440;5.644;2023-05-07T10:20:07;17.00;99.90
53294;DHT22;39181;53.440;5.644;2023-05-07T10:22:47;17.20;99.90
53294;DHT22;39181;53.440;5.644;2023-05-07T10:25:20;17.20;99.90
53294;DHT22;39181;53.440;5.644;2023-05-07T10:27:48;17.20;99.90
53294;DHT22;39181;53.440;5.644;2023-05-07T10:33:02;17.70;99.90
53294;DHT22;39181;53.440;5.644;2023-05-07T10:35:37;17.80;99.90
53294;DHT22;39181;53.440;5.644;2023-05-07T10:38:03;17.80;99.90
53294;DHT22;39181;53.440;5.644;2023-05-07T10:40:30;17.90;99.90
53294;DHT22;39181;53.440;5.644;2023-05-07T10:42:57;18.10;99.90
53294;DHT22;39181;53.440;5.644;2023-05-07T10:45:25;18.40;99.90
53294;DHT22;39181;53.440;5.644;2023-05-07T10:50:32;18.60;99.90
53294;DHT22;39181;53.440;5.644;2023-05-07T10:55:42;18.40;99.90
53294;DHT22;39181;53.440;5.644;2023-05-07T10:58:27;18.20;99.90
53294;DHT22;39181;53.440;5.644;2023-05-07T11:01:00;18.30;99.90
53294;DHT22;39181;53.440;5.644;2023-05-07T11:03:27;18.20;99.90
53294;DHT22;39181;53.440;5.644;2023-05-07T11:06:12;18.10;99.90
53294;DHT22;39181;53.440;5.644;2023-05-07T11:08:56;18.10;99.90
53294;DHT22;39181;53.440;5.644;2023-05-07T11:11:44;18.20;99.90
53294;DHT22;39181;53.440;5.644;2023-05-07T11:14:10;18.20;99.90
53294;DHT22;39181;53.440;5.644;2023-05-07T11:16:36;18.20;99.90
53294;DHT22;39181;53.440;5.644;2023-05-07T11:19:03;18.00;99.90
53294;DHT22;39181;53.440;5.644;2023-05-07T11:21:37;17.90;99.90
53294;DHT22;39181;53.440;5.644;2023-05-07T11:24:05;17.70;99.90
53294;DHT22;39181;53.440;5.644;2023-05-07T11:26:50;17.70;99.90
53294;DHT22;39181;53.440;5.644;2023-05-07T11:29:17;17.90;99.90
53294;DHT22;39181;53.440;5.644;2023-05-07T11:31:43;17.90;99.90
53294;DHT22;39181;53.440;5.644;2023-05-07T11:34:09;17.90;99.90
53294;DHT22;39181;53.440;5.644;2023-05-07T11:36:36;17.90;99.90
53294;DHT22;39181;53.440;5.644;2023-05-07T11:39:30;17.90;99.90
53294;DHT22;39181;53.440;5.644;2023-05-07T11:42:01;17.80;99.90
53294;DHT22;39181;53.440;5.644;2023-05-07T11:44:43;17.60;99.90
53294;DHT22;39181;53.440;5.644;2023-05-07T11:47:10;17.60;99.90
53294;DHT22;39181;53.440;5.644;2023-05-07T11:49:36;17.90;99.90
53294;DHT22;39181;53.440;5.644;2023-05-07T11:52:02;17.70;99.90
53294;DHT22;39181;53.440;5.644;2023-05-07T11:54:35;17.60;99.90
53294;DHT22;39181;53.440;5.644;2023-05-07T11:57:01;17.70;99.90
53294;DHT22;39181;53.440;5.644;2023-05-07T11:59:26;17.80;99.90
53294;DHT22;39181;53.440;5.644;2023-05-07T12:01:52;17.80;99.90
53294;DHT22;39181;53.440;5.644;2023-05-07T12:04:19;18.00;99.90
53294;DHT22;39181;53.440;5.644;2023-05-07T12:06:46;17.90;99.90
53294;DHT22;39181;53.440;5.644;2023-05-07T12:09:11;17.80;99.90
53294;DHT22;39181;53.440;5.644;2023-05-07T12:11:37;18.00;99.90
53294;DHT22;39181;53.440;5.644;2023-05-07T12:14:05;18.10;99.90
53294;DHT22;39181;53.440;5.644;2023-05-07T12:16:30;17.90;99.90
53294;DHT22;39181;53.440;5.644;2023-05-07T12:18:56;17.70;99.90
53294;DHT22;39181;53.440;5.644;2023-05-07T12:21:24;17.90;99.90
53294;DHT22;39181;53.440;5.644;2023-05-07T12:23:50;18.20;99.90
53294;DHT22;39181;53.440;5.644;2023-05-07T12:26:16;18.30;99.90
53294;DHT22;39181;53.440;5.644;2023-05-07T12:28:41;18.50;99.90
53294;DHT22;39181;53.440;5.644;2023-05-07T12:31:07;18.50;99.90
53294;DHT22;39181;53.440;5.644;2023-05-07T12:33:34;18.70;99.90
53294;DHT22;39181;53.440;5.644;2023-05-07T12:36:05;18.70;99.90
53294;DHT22;39181;53.440;5.644;2023-05-07T12:38:35;19.00;99.90
53294;DHT22;39181;53.440;5.644;2023-05-07T12:41:02;19.10;99.90
53294;DHT22;39181;53.440;5.644;2023-05-07T12:43:28;19.20;99.90
53294;DHT22;39181;53.440;5.644;2023-05-07T12:45:57;19.20;99.90
53294;DHT22;39181;53.440;5.644;2023-05-07T12:48:23;19.40;99.90
53294;DHT22;39181;53.440;5.644;2023-05-07T12:50:56;19.30;99.90
53294;DHT22;39181;53.440;5.644;2023-05-07T12:53:24;19.40;99.90
53294;DHT22;39181;53.440;5.644;2023-05-07T12:55:59;19.30;99.90
53294;DHT22;39181;53.440;5.644;2023-05-07T12:58:30;19.20;99.90
53294;DHT22;39181;53.440;5.644;2023-05-07T13:00:59;19.20;99.90
53294;DHT22;39181;53.440;5.644;2023-05-07T13:03:33;19.00;99.90
53294;DHT22;39181;53.440;5.644;2023-05-07T13:06:06;19.20;99.90
53294;DHT22;39181;53.440;5.644;2023-05-07T13:08:34;19.30;99.90
53294;DHT22;39181;53.440;5.644;2023-05-07T13:11:02;19.40;99.90
53294;DHT22;39181;53.440;5.644;2023-05-07T13:13:34;19.40;99.90
53294;DHT22;39181;53.440;5.644;2023-05-07T13:16:00;19.50;99.90
53294;DHT22;39181;53.440;5.644;2023-05-07T13:18:26;19.40;99.90
53294;DHT22;39181;53.440;5.644;2023-05-07T13:20:53;19.40;99.90
53294;DHT22;39181;53.440;5.644;2023-05-07T13:23:18;19.40;99.90
53294;DHT22;39181;53.440;5.644;2023-05-07T13:25:44;19.30;99.90
53294;DHT22;39181;53.440;5.644;2023-05-07T13:28:10;19.10;99.90
53294;DHT22;39181;53.440;5.644;2023-05-07T13:30:36;19.10;99.90
53294;DHT22;39181;53.440;5.644;2023-05-07T13:33:01;19.10;99.90
53294;DHT22;39181;53.440;5.644;2023-05-07T13:35:28;19.00;99.90
53294;DHT22;39181;53.440;5.644;2023-05-07T13:37:53;19.20;99.90
53294;DHT22;39181;53.440;5.644;2023-05-07T13:40:20;19.20;99.90
53294;DHT22;39181;53.440;5.644;2023-05-07T13:42:47;19.20;99.90
53294;DHT22;39181;53.440;5.644;2023-05-07T13:45:12;19.20;99.90
53294;DHT22;39181;53.440;5.644;2023-05-07T13:47:40;19.10;99.90
53294;DHT22;39181;53.440;5.644;2023-05-07T13:50:07;19.10;99.90
53294;DHT22;39181;53.440;5.644;2023-05-07T13:52:33;19.30;99.90
53294;DHT22;39181;53.440;5.644;2023-05-07T13:54:58;19.20;99.90
53294;DHT22;39181;53.440;5.644;2023-05-07T13:57:24;18.90;99.90
53294;DHT22;39181;53.440;5.644;2023-05-07T13:59:50;18.70;99.90
53294;DHT22;39181;53.440;5.644;2023-05-07T14:02:15;18.60;99.90
53294;DHT22;39181;53.440;5.644;2023-05-07T14:04:41;18.60;99.90
53294;DHT22;39181;53.440;5.644;2023-05-07T14:07:07;18.50;99.90
53294;DHT22;39181;53.440;5.644;2023-05-07T14:09:32;18.50;99.90
53294;DHT22;39181;53.440;5.644;2023-05-07T14:11:58;18.50;99.90
53294;DHT22;39181;53.440;5.644;2023-05-07T14:14:24;18.40;99.90
53294;DHT22;39181;53.440;5.644;2023-05-07T14:16:50;18.50;99.90
53294;DHT22;39181;53.440;5.644;2023-05-07T14:19:15;18.50;99.90
53294;DHT22;39181;53.440;5.644;2023-05-07T14:21:41;18.50;99.90
53294;DHT22;39181;53.440;5.644;2023-05-07T14:24:07;18.60;99.90
53294;DHT22;39181;53.440;5.644;2023-05-07T14:26:34;18.60;99.90
53294;DHT22;39181;53.440;5.644;2023-05-07T14:29:00;18.70;99.90
53294;DHT22;39181;53.440;5.644;2023-05-07T14:31:25;18.80;99.90
53294;DHT22;39181;53.440;5.644;2023-05-07T14:33:51;18.80;99.90
53294;DHT22;39181;53.440;5.644;2023-05-07T14:36:17;18.80;99.90
53294;DHT22;39181;53.440;5.644;2023-05-07T14:38:45;19.10;99.90
53294;DHT22;39181;53.440;5.644;2023-05-07T14:41:11;19.00;99.90
53294;DHT22;39181;53.440;5.644;2023-05-07T14:43:37;19.10;99.90
53294;DHT22;39181;53.440;5.644;2023-05-07T14:46:02;19.10;99.90
53294;DHT22;39181;53.440;5.644;2023-05-07T14:48:28;19.20;99.90
53294;DHT22;39181;53.440;5.644;2023-05-07T14:50:54;19.10;99.90
53294;DHT22;39181;53.440;5.644;2023-05-07T14:53:19;19.10;99.90
53294;DHT22;39181;53.440;5.644;2023-05-07T14:55:45;19.20;99.90
53294;DHT22;39181;53.440;5.644;2023-05-07T14:58:11;19.10;99.90
53294;DHT22;39181;53.440;5.644;2023-05-07T15:00:36;19.10;99.90
53294;DHT22;39181;53.440;5.644;2023-05-07T15:03:07;19.20;99.90
53294;DHT22;39181;53.440;5.644;2023-05-07T15:05:33;19.20;99.90
53294;DHT22;39181;53.440;5.644;2023-05-07T15:07:59;19.20;99.90
53294;DHT22;39181;53.440;5.644;2023-05-07T15:10:25;19.30;99.90
53294;DHT22;39181;53.440;5.644;2023-05-07T15:12:51;19.20;99.90
53294;DHT22;39181;53.440;5.644;2023-05-07T15:15:16;19.10;99.90
53294;DHT22;39181;53.440;5.644;2023-05-07T15:17:42;19.20;99.90
53294;DHT22;39181;53.440;5.644;2023-05-07T15:20:08;19.30;99.90
53294;DHT22;39181;53.440;5.644;2023-05-07T15:22:34;19.30;99.90
53294;DHT22;39181;53.440;5.644;2023-05-07T15:25:01;19.30;99.90
53294;DHT22;39181;53.440;5.644;2023-05-07T15:27:27;19.40;99.90
53294;DHT22;39181;53.440;5.644;2023-05-07T15:29:52;19.30;99.90
53294;DHT22;39181;53.440;5.644;2023-05-07T15:32:18;19.40;99.90
53294;DHT22;39181;53.440;5.644;2023-05-07T15:34:43;19.50;99.90